Terminal Aerodrome Forecast
Issued by NWS Austin/San Antonio, TX

Home | Current Version | Previous Version | Text Only | Print | Product List | Glossary On
Versions: 1 2 3 4 5 6 7 8 9 10 11 12 13 14 15 16 17 18 19
309
FTUS44 KEWX 260524
TAFDRT
TAF
KDRT 260524Z 2606/2706 11005KT P6SM SCT250
     FM261200 10005KT P6SM OVC015
     FM261600 13010KT P6SM VCSH BKN050
     FM270300 11005KT P6SM BKN050=

USA.gov is the U.S. government's official web portal to all federal, state and local government web resources and services.